createdAt,value
2023-05-14T00:02:04.499Z,102530.91
2023-05-14T00:04:32.649Z,102526.47
2023-05-14T00:07:00.964Z,102522.03
2023-05-14T00:09:30.518Z,102524.69
2023-05-14T00:11:58.598Z,102521.13
2023-05-14T00:14:26.668Z,102525.50
2023-05-14T00:16:54.701Z,102528.16
2023-05-14T00:19:22.730Z,102518.31
2023-05-14T00:21:50.769Z,102520.00
2023-05-14T00:24:18.697Z,102521.78
2023-05-14T00:26:49.083Z,102525.31
2023-05-14T00:29:17.193Z,102527.09
2023-05-14T00:31:45.295Z,102522.63
2023-05-14T00:34:13.437Z,102518.19
2023-05-14T00:36:41.400Z,102516.34
2023-05-14T00:39:09.517Z,102527.00
2023-05-14T00:41:37.601Z,102521.59
2023-05-14T00:44:07.097Z,102525.13
2023-05-14T00:46:35.250Z,102526.88
2023-05-14T00:49:03.395Z,102527.72
2023-05-14T00:51:31.766Z,102528.59
2023-05-14T00:54:00.002Z,102522.38
2023-05-14T00:56:29.159Z,102527.72
2023-05-14T00:58:57.161Z,102526.81
2023-05-14T01:01:28.588Z,102529.50
2023-05-14T01:03:58.182Z,102529.50
2023-05-14T01:06:35.785Z,102525.94
2023-05-14T01:09:09.930Z,102536.59
2023-05-14T01:11:44.565Z,102533.88
2023-05-14T01:14:19.206Z,102530.28
2023-05-14T01:16:50.701Z,102530.28
2023-05-14T01:19:27.881Z,102524.03
2023-05-14T01:21:57.387Z,102521.31
2023-05-14T01:24:25.335Z,102524.84
2023-05-14T01:26:54.869Z,102519.50
2023-05-14T01:29:24.262Z,102515.94
2023-05-14T01:31:54.618Z,102517.84
2023-05-14T01:34:25.548Z,102520.59
2023-05-14T01:36:54.537Z,102521.59
2023-05-14T01:39:25.065Z,102513.59
2023-05-14T01:41:53.475Z,102520.69
2023-05-14T01:44:22.561Z,102518.88
2023-05-14T01:46:50.694Z,102518.00
2023-05-14T01:49:19.753Z,102514.38
2023-05-14T01:51:47.837Z,102509.91
2023-05-14T01:54:15.798Z,102510.81
2023-05-14T01:56:45.174Z,102507.19
2023-05-14T01:59:13.260Z,102510.78
2023-05-14T02:01:41.399Z,102514.28
2023-05-14T02:04:09.862Z,102518.69
2023-05-14T02:06:37.873Z,102517.75
2023-05-14T02:09:06.251Z,102520.38
2023-05-14T02:11:34.717Z,102522.06
2023-05-14T02:14:05.108Z,102526.44
2023-05-14T02:16:33.162Z,102531.78
2023-05-14T02:19:01.256Z,102532.59
2023-05-14T02:21:49.501Z,102533.38
2023-05-14T02:24:17.719Z,102525.34
2023-05-14T02:26:45.796Z,102530.59
2023-05-14T02:29:15.310Z,102534.13
2023-05-14T02:31:43.619Z,102522.50
2023-05-14T02:34:11.797Z,102518.03
2023-05-14T02:36:40.115Z,102517.97
2023-05-14T02:39:08.102Z,102515.22
2023-05-14T02:41:36.037Z,102524.00
2023-05-14T02:44:04.091Z,102506.97
2023-05-14T02:46:33.717Z,102513.88
2023-05-14T02:49:03.186Z,102506.66
2023-05-14T02:51:31.437Z,102507.50
2023-05-14T02:53:59.378Z,102515.44
2023-05-14T02:56:27.557Z,102506.44
2023-05-14T02:58:55.615Z,102509.84
2023-05-14T03:01:24.343Z,102512.47
2023-05-14T03:03:54.218Z,102512.47
2023-05-14T03:06:22.293Z,102513.34
2023-05-14T03:08:50.609Z,102508.91
2023-05-14T03:11:18.761Z,102511.56
2023-05-14T03:13:46.790Z,102504.31
2023-05-14T03:16:14.802Z,102508.19
2023-05-14T03:18:42.945Z,102503.72
2023-05-14T03:21:12.428Z,102504.69
2023-05-14T03:23:40.592Z,102502.97
2023-05-14T03:26:08.604Z,102504.84
2023-05-14T03:28:36.652Z,102502.00
2023-05-14T03:31:04.979Z,102500.00
2023-05-14T03:33:33.107Z,102498.94
2023-05-14T03:36:01.104Z,102502.38
2023-05-14T03:38:30.477Z,102500.50
2023-05-14T03:40:58.924Z,102503.00
2023-05-14T03:43:27.500Z,102510.91
2023-05-14T03:45:56.185Z,102508.94
2023-05-14T03:48:24.411Z,102514.25
2023-05-14T03:50:52.553Z,102507.78
2023-05-14T03:53:20.622Z,102504.03
2023-05-14T03:55:50.121Z,102512.03
2023-05-14T03:58:18.229Z,102505.91
2023-05-14T04:00:46.229Z,102511.16
2023-05-14T04:03:14.318Z,102510.31
2023-05-14T04:05:42.490Z,102508.75
2023-05-14T04:08:10.630Z,102502.69
2023-05-14T04:10:38.749Z,102509.28
2023-05-14T04:13:08.154Z,102509.25
2023-05-14T04:15:40.044Z,102511.03
2023-05-14T04:18:09.246Z,102506.22
2023-05-14T04:20:37.815Z,102507.47
2023-05-14T04:23:06.541Z,102507.72
2023-05-14T04:25:34.601Z,102508.47
2023-05-14T04:28:02.663Z,102504.66
2023-05-14T04:30:32.172Z,102497.97
2023-05-14T04:33:00.504Z,102489.66
2023-05-14T04:35:28.477Z,102494.19
2023-05-14T04:37:56.691Z,102495.25
2023-05-14T04:40:25.000Z,102501.84
2023-05-14T04:42:53.246Z,102497.91
2023-05-14T04:45:21.439Z,102491.22
2023-05-14T04:47:51.429Z,102493.03
2023-05-14T04:50:19.640Z,102504.06
2023-05-14T04:52:47.626Z,102500.00
2023-05-14T04:55:15.689Z,102496.47
2023-05-14T04:57:43.808Z,102504.06
2023-05-14T05:00:13.261Z,102500.66
2023-05-14T05:02:41.596Z,102502.09
2023-05-14T05:05:11.640Z,102506.75
2023-05-14T05:07:39.759Z,102484.47
2023-05-14T05:10:09.311Z,102489.19
2023-05-14T05:12:37.441Z,102487.22
2023-05-14T05:15:06.322Z,102498.63
2023-05-14T05:17:34.662Z,102496.75
2023-05-14T05:20:03.970Z,102503.59
2023-05-14T05:22:33.501Z,102499.41
2023-05-14T05:25:01.497Z,102500.53
2023-05-14T05:27:31.108Z,102497.88
2023-05-14T05:29:59.324Z,102484.03
2023-05-14T05:32:27.537Z,102493.63
2023-05-14T05:34:55.746Z,102498.34
2023-05-14T05:37:23.884Z,102492.41
2023-05-14T05:39:54.496Z,102485.78
2023-05-14T05:42:22.591Z,102494.75
2023-05-14T05:44:50.674Z,102496.25
2023-05-14T05:47:18.918Z,102484.38
2023-05-14T05:49:47.065Z,102499.00
2023-05-14T05:52:15.049Z,102494.13
2023-05-14T05:54:43.039Z,102501.50
2023-05-14T05:57:12.542Z,102497.06
2023-05-14T05:59:40.516Z,102497.25
2023-05-14T06:02:08.671Z,102494.19
2023-05-14T06:04:36.762Z,102503.19
2023-05-14T06:07:05.090Z,102499.88
2023-05-14T06:09:33.143Z,102498.50
2023-05-14T06:12:01.282Z,102498.91
2023-05-14T06:14:30.600Z,102482.28
2023-05-14T06:16:58.734Z,102493.56
2023-05-14T06:19:26.849Z,102488.72
2023-05-14T06:21:54.875Z,102489.56
2023-05-14T06:24:22.848Z,102481.69
2023-05-14T06:26:50.902Z,102484.31
2023-05-14T06:29:18.878Z,102495.59
2023-05-14T06:31:48.509Z,102491.81
2023-05-14T06:34:16.761Z,102486.69
2023-05-14T06:36:44.888Z,102489.66
2023-05-14T06:39:12.907Z,102487.31
2023-05-14T06:41:40.924Z,102487.91
2023-05-14T06:44:11.094Z,102494.88
2023-05-14T06:46:39.190Z,102499.81
2023-05-14T06:49:08.619Z,102487.41
2023-05-14T06:51:36.850Z,102496.53
2023-05-14T06:54:05.098Z,102487.03
2023-05-14T06:56:33.212Z,102491.78
2023-05-14T06:59:01.262Z,102490.25
2023-05-14T07:01:30.461Z,102496.06
2023-05-14T07:03:58.542Z,102486.13
2023-05-14T07:06:28.011Z,102489.25
2023-05-14T07:08:56.156Z,102491.78
2023-05-14T07:11:24.152Z,102490.19
2023-05-14T07:13:52.258Z,102492.78
2023-05-14T07:16:20.804Z,102505.59
2023-05-14T07:18:48.816Z,102504.63
2023-05-14T07:21:16.845Z,102510.47
2023-05-14T07:23:46.303Z,102505.03
2023-05-14T07:26:14.335Z,102499.88
2023-05-14T07:28:43.189Z,102502.25
2023-05-14T07:31:11.359Z,102498.91
2023-05-14T07:33:39.520Z,102503.00
2023-05-14T07:36:08.923Z,102499.88
2023-05-14T07:38:37.011Z,102501.88
2023-05-14T07:41:06.593Z,102507.69
2023-05-14T07:43:34.636Z,102502.16
2023-05-14T07:46:02.797Z,102499.81
2023-05-14T07:48:30.794Z,102495.94
2023-05-14T07:50:58.888Z,102501.34
2023-05-14T07:53:26.942Z,102498.94
2023-05-14T07:55:55.064Z,102491.78
2023-05-14T07:58:25.186Z,102488.88
2023-05-14T08:00:53.390Z,102491.31
2023-05-14T08:03:21.591Z,102488.91
2023-05-14T08:05:49.652Z,102494.19
2023-05-14T08:08:17.809Z,102474.09
2023-05-14T08:10:45.889Z,102476.63
2023-05-14T08:13:14.065Z,102469.88
2023-05-14T08:15:43.488Z,102474.66
2023-05-14T08:18:11.564Z,102475.72
2023-05-14T08:20:39.662Z,102472.13
2023-05-14T08:23:08.414Z,102471.34
2023-05-14T08:25:36.515Z,102468.59
2023-05-14T08:28:05.171Z,102468.78
2023-05-14T08:30:33.298Z,102469.38
2023-05-14T08:33:02.817Z,102468.22
2023-05-14T08:35:31.106Z,102469.31
2023-05-14T08:37:59.138Z,102464.88
2023-05-14T08:40:27.999Z,102465.78
2023-05-14T08:42:57.928Z,102470.31
2023-05-14T08:45:30.789Z,102467.31
2023-05-14T08:48:00.540Z,102464.78
2023-05-14T08:50:31.255Z,102459.81
2023-05-14T08:52:59.896Z,102451.69
2023-05-14T08:55:29.232Z,102459.25
2023-05-14T08:57:57.264Z,102457.78
2023-05-14T09:00:26.649Z,102455.38
2023-05-14T09:02:56.312Z,102455.97
2023-05-14T09:05:25.336Z,102445.94
2023-05-14T09:07:54.760Z,102446.81
2023-05-14T09:10:23.133Z,102453.66
2023-05-14T09:12:51.688Z,102440.91
2023-05-14T09:15:19.960Z,102443.25
2023-05-14T09:17:49.287Z,102441.59
2023-05-14T09:20:17.846Z,102441.69
2023-05-14T09:22:45.923Z,102437.09
2023-05-14T09:25:15.367Z,102434.91
2023-05-14T09:27:43.497Z,102440.75
2023-05-14T09:30:13.477Z,102438.00
2023-05-14T09:32:44.030Z,102436.84
2023-05-14T09:35:14.774Z,102431.47
2023-05-14T09:37:43.940Z,102432.59
2023-05-14T09:40:12.399Z,102426.00
2023-05-14T09:42:42.037Z,102421.25
2023-05-14T09:45:11.265Z,102421.38
2023-05-14T09:47:40.869Z,102417.91
2023-05-14T09:50:10.052Z,102411.09
2023-05-14T09:52:38.454Z,102412.00
2023-05-14T09:55:08.127Z,102411.59
2023-05-14T09:57:36.626Z,102410.34
2023-05-14T10:00:08.939Z,102403.63
2023-05-14T10:02:40.648Z,102405.97
2023-05-14T10:05:09.685Z,102403.00
2023-05-14T10:07:41.635Z,102401.00
2023-05-14T10:10:14.718Z,102397.22
2023-05-14T10:12:45.203Z,102399.31
2023-05-14T10:15:21.080Z,102393.53
2023-05-14T10:17:54.731Z,102388.28
2023-05-14T10:20:25.154Z,102383.19
2023-05-14T10:22:53.647Z,102387.28
2023-05-14T10:25:22.536Z,102384.00
2023-05-14T10:27:51.118Z,102376.38
2023-05-14T10:30:23.019Z,102372.28
2023-05-14T10:32:51.121Z,102378.78
2023-05-14T10:35:25.402Z,102374.69
2023-05-14T10:37:53.635Z,102368.25
2023-05-14T10:40:26.077Z,102365.78
2023-05-14T10:42:55.999Z,102362.16
2023-05-14T10:45:25.732Z,102357.34
2023-05-14T10:47:54.911Z,102357.56
2023-05-14T10:50:23.718Z,102357.72
2023-05-14T10:52:53.220Z,102359.41
2023-05-14T10:55:22.901Z,102348.44
2023-05-14T10:57:53.441Z,102357.34
2023-05-14T11:00:21.613Z,102353.28
2023-05-14T11:02:51.610Z,102348.09
2023-05-14T11:05:19.723Z,102346.50
2023-05-14T11:07:49.440Z,102338.38
2023-05-14T11:10:19.165Z,102339.28
2023-05-14T11:12:49.159Z,102338.25
2023-05-14T11:15:18.897Z,102341.22
2023-05-14T11:17:48.562Z,102342.34
2023-05-14T11:20:19.266Z,102333.25
2023-05-14T11:22:48.955Z,102331.31
2023-05-14T11:25:18.382Z,102332.47
2023-05-14T11:27:48.468Z,102332.47
2023-05-14T11:30:17.538Z,102329.59
2023-05-14T11:32:46.917Z,102333.56
2023-05-14T11:35:15.694Z,102339.75
2023-05-14T11:37:50.280Z,102327.63
2023-05-14T11:40:18.662Z,102319.22
2023-05-14T11:42:47.480Z,102320.44
2023-05-14T11:45:25.436Z,102321.25
2023-05-14T11:47:53.845Z,102313.38
2023-05-14T11:50:22.980Z,102316.06
2023-05-14T11:52:57.890Z,102321.19
2023-05-14T11:55:26.195Z,102326.50
2023-05-14T11:57:54.908Z,102316.13
2023-05-14T12:00:24.745Z,102315.53
2023-05-14T12:02:53.690Z,102310.56
2023-05-14T12:05:21.936Z,102307.28
2023-05-14T12:07:49.972Z,102308.00
2023-05-14T12:10:19.401Z,102308.19
2023-05-14T12:12:49.334Z,102305.28
2023-05-14T12:15:18.149Z,102301.97
2023-05-14T12:17:51.893Z,102300.56
2023-05-14T12:20:20.332Z,102295.25
2023-05-14T12:22:48.462Z,102296.56
2023-05-14T12:25:16.463Z,102291.00
2023-05-14T12:27:46.754Z,102290.22
2023-05-14T12:35:14.945Z,102289.28
2023-05-14T12:37:43.110Z,102286.66
2023-05-14T12:40:11.755Z,102289.03
2023-05-14T12:42:39.859Z,102283.63
2023-05-14T12:45:09.935Z,102286.25
2023-05-14T12:47:39.026Z,102285.97
2023-05-14T12:50:08.408Z,102288.94
2023-05-14T12:52:39.193Z,102274.09
2023-05-14T12:55:09.471Z,102284.03
2023-05-14T12:57:39.036Z,102278.97
2023-05-14T13:00:21.186Z,102276.44
2023-05-14T13:02:49.422Z,102277.31
2023-05-14T13:05:17.504Z,102278.00
2023-05-14T13:07:45.583Z,102271.19
2023-05-14T13:10:13.568Z,102272.78
2023-05-14T13:12:41.667Z,102262.50
2023-05-14T13:15:12.193Z,102272.34
2023-05-14T13:17:41.370Z,102265.81
2023-05-14T13:20:10.480Z,102259.75
2023-05-14T13:22:38.514Z,102262.56
2023-05-14T13:25:07.487Z,102261.78
2023-05-14T13:27:36.222Z,102261.44
2023-05-14T13:30:04.747Z,102259.41
2023-05-14T13:32:34.197Z,102258.72
2023-05-14T13:35:02.457Z,102260.13
2023-05-14T13:37:31.623Z,102251.81
2023-05-14T13:39:59.677Z,102260.66
2023-05-14T13:42:27.738Z,102260.53
2023-05-14T13:44:56.369Z,102244.47
2023-05-14T13:47:24.528Z,102250.94
2023-05-14T13:49:54.597Z,102253.28
2023-05-14T13:52:22.667Z,102244.03
2023-05-14T13:54:50.962Z,102245.53
2023-05-14T13:57:19.010Z,102243.75
2023-05-14T13:59:47.785Z,102236.16
2023-05-14T14:02:16.262Z,102241.22
2023-05-14T14:04:44.391Z,102239.38
2023-05-14T14:07:13.788Z,102237.75
2023-05-14T14:09:41.776Z,102234.59
2023-05-14T14:12:10.547Z,102239.66
2023-05-14T14:14:38.599Z,102235.78
2023-05-14T14:17:06.620Z,102240.34
2023-05-14T14:19:34.710Z,102236.94
2023-05-14T14:22:02.970Z,102233.63
2023-05-14T14:24:32.546Z,102230.22
2023-05-14T14:27:02.293Z,102223.34
2023-05-14T14:29:31.235Z,102230.06
2023-05-14T14:31:59.414Z,102222.31
2023-05-14T14:34:27.726Z,102220.03
2023-05-14T14:36:55.860Z,102213.16
2023-05-14T14:39:25.418Z,102210.00
2023-05-14T14:41:54.985Z,102211.16
2023-05-14T14:44:23.216Z,102206.09
2023-05-14T14:46:51.300Z,102211.69
2023-05-14T14:49:19.299Z,102203.34
2023-05-14T14:51:47.358Z,102204.75
2023-05-14T14:54:15.502Z,102203.78
2023-05-14T14:56:45.876Z,102203.00
2023-05-14T14:59:15.289Z,102200.53
2023-05-14T15:01:43.475Z,102198.09
2023-05-14T15:04:11.606Z,102199.47
2023-05-14T15:06:39.558Z,102198.84
2023-05-14T15:09:09.251Z,102195.53
2023-05-14T15:11:37.722Z,102195.00
2023-05-14T15:14:05.849Z,102190.72
2023-05-14T15:16:35.522Z,102188.25
2023-05-14T15:19:03.867Z,102188.34
2023-05-14T15:21:32.059Z,102186.81
2023-05-14T15:24:00.113Z,102185.22
2023-05-14T15:26:28.164Z,102185.53
2023-05-14T15:28:56.233Z,102186.03
2023-05-14T15:31:24.593Z,102181.75
2023-05-14T15:33:56.026Z,102179.22
2023-05-14T15:36:24.228Z,102181.28
2023-05-14T15:38:52.280Z,102175.16
2023-05-14T15:41:21.166Z,102180.00
2023-05-14T15:43:49.421Z,102169.59
2023-05-14T15:46:17.526Z,102166.44
2023-05-14T15:48:45.564Z,102165.63
2023-05-14T15:51:15.308Z,102170.41
2023-05-14T15:53:43.314Z,102166.19
2023-05-14T15:56:11.384Z,102160.88
2023-05-14T15:58:39.456Z,102162.94
2023-05-14T16:01:07.466Z,102160.28
2023-05-14T16:03:35.678Z,102155.06
2023-05-14T16:06:03.797Z,102158.84
2023-05-14T16:08:33.146Z,102153.50
2023-05-14T16:11:01.172Z,102151.84
2023-05-14T16:13:29.224Z,102153.75
2023-05-14T16:15:57.336Z,102152.09
2023-05-14T16:18:25.870Z,102145.91
2023-05-14T16:20:53.916Z,102143.44
2023-05-14T16:23:21.975Z,102152.63
2023-05-14T16:25:51.550Z,102149.28
2023-05-14T16:28:19.691Z,102152.16
2023-05-14T16:30:47.671Z,102144.50
2023-05-14T16:33:16.424Z,102149.06
2023-05-14T16:35:45.429Z,102152.88
2023-05-14T16:38:14.036Z,102145.72
2023-05-14T16:40:42.931Z,102143.22
2023-05-14T16:43:12.791Z,102152.25
2023-05-14T16:45:41.567Z,102143.50
2023-05-14T16:48:09.777Z,102146.41
2023-05-14T16:50:37.812Z,102146.56
2023-05-14T16:53:05.848Z,102147.56
2023-05-14T16:55:33.826Z,102138.72
2023-05-14T16:58:01.917Z,102146.84
2023-05-14T17:00:31.360Z,102150.56
2023-05-14T17:02:59.412Z,102147.06
2023-05-14T17:05:27.552Z,102145.41
2023-05-14T17:07:56.760Z,102149.06
2023-05-14T17:10:26.260Z,102150.16
2023-05-14T17:12:54.426Z,102153.97
2023-05-14T17:15:22.616Z,102155.25
2023-05-14T17:17:52.265Z,102155.38
2023-05-14T17:20:20.359Z,102162.31
2023-05-14T17:22:48.480Z,102156.44
2023-05-14T17:25:16.821Z,102161.56
2023-05-14T17:27:44.868Z,102156.75
2023-05-14T17:30:13.570Z,102154.69
2023-05-14T17:32:41.816Z,102153.81
2023-05-14T17:35:11.689Z,102159.34
2023-05-14T17:37:42.865Z,102159.81
2023-05-14T17:40:11.907Z,102159.13
2023-05-14T17:42:40.051Z,102157.38
2023-05-14T17:45:09.826Z,102160.13
2023-05-14T17:47:37.913Z,102164.84
2023-05-14T17:50:07.254Z,102168.00
2023-05-14T17:52:36.635Z,102164.88
2023-05-14T17:55:05.025Z,102168.59
2023-05-14T17:57:33.085Z,102161.56
2023-05-14T18:00:01.085Z,102168.59
2023-05-14T18:02:29.208Z,102167.81
2023-05-14T18:04:57.313Z,102168.03
2023-05-14T18:07:25.420Z,102162.06
2023-05-14T18:09:54.790Z,102168.75
2023-05-14T18:12:22.796Z,102169.56
2023-05-14T18:14:50.799Z,102169.63
2023-05-14T18:17:19.034Z,102167.84
2023-05-14T18:19:47.239Z,102168.06
2023-05-14T18:22:15.577Z,102170.06
2023-05-14T18:24:44.428Z,102171.03
2023-05-14T18:27:14.000Z,102172.94
2023-05-14T18:29:42.712Z,102172.84
2023-05-14T18:32:10.826Z,102178.38
2023-05-14T18:34:39.069Z,102174.88
2023-05-14T18:37:07.800Z,102175.94
2023-05-14T18:39:35.894Z,102179.84
2023-05-14T18:42:03.984Z,102174.41
2023-05-14T18:44:33.352Z,102178.03
2023-05-14T18:47:01.352Z,102178.28
2023-05-14T18:49:29.351Z,102181.09
2023-05-14T18:51:57.387Z,102183.69
2023-05-14T18:54:25.465Z,102179.19
2023-05-14T18:56:53.459Z,102181.00
2023-05-14T18:59:21.477Z,102177.63
2023-05-14T19:01:51.381Z,102178.75
2023-05-14T19:04:19.512Z,102170.88
2023-05-14T19:06:47.577Z,102175.25
2023-05-14T19:09:21.026Z,102176.09
2023-05-14T19:11:49.253Z,102175.34
2023-05-14T19:14:17.313Z,102176.69
2023-05-14T19:16:45.399Z,102183.19
2023-05-14T19:19:15.169Z,102177.84
2023-05-14T19:21:43.361Z,102173.53
2023-05-14T19:24:11.338Z,102170.97
2023-05-14T19:26:39.486Z,102169.38
2023-05-14T19:29:07.663Z,102171.22
2023-05-14T19:31:35.736Z,102160.81
2023-05-14T19:34:03.832Z,102165.16
2023-05-14T19:36:33.452Z,102165.22
2023-05-14T19:39:01.468Z,102166.97
2023-05-14T19:41:29.823Z,102167.97
2023-05-14T19:43:57.838Z,102165.38
2023-05-14T19:46:25.886Z,102158.78
2023-05-14T19:48:53.954Z,102166.94
2023-05-14T19:51:21.972Z,102152.59
2023-05-14T19:53:51.365Z,102160.66
2023-05-14T19:56:19.400Z,102162.56
2023-05-14T19:58:47.366Z,102163.75
2023-05-14T20:01:15.501Z,102159.22
2023-05-14T20:03:43.783Z,102163.94
2023-05-14T20:06:12.348Z,102154.16
2023-05-14T20:08:40.459Z,102163.22
2023-05-14T20:11:09.896Z,102157.06
2023-05-14T20:13:38.353Z,102160.66
2023-05-14T20:16:06.841Z,102168.88
2023-05-14T20:18:35.024Z,102159.13
2023-05-14T20:21:03.856Z,102167.28
2023-05-14T20:23:32.367Z,102162.97
2023-05-14T20:26:01.864Z,102163.91
2023-05-14T20:28:31.515Z,102156.06
2023-05-14T20:31:00.319Z,102159.75
2023-05-14T20:33:29.193Z,102167.75
2023-05-14T20:35:57.368Z,102156.09
2023-05-14T20:38:25.766Z,102165.09
2023-05-14T20:40:53.810Z,102159.03
2023-05-14T20:43:21.751Z,102160.88
2023-05-14T20:45:51.101Z,102162.75
2023-05-14T20:48:21.279Z,102161.94
2023-05-14T20:50:49.333Z,102162.91
2023-05-14T20:53:17.268Z,102161.19
2023-05-14T20:55:45.656Z,102167.47
2023-05-14T20:58:13.686Z,102168.44
2023-05-14T21:00:41.743Z,102162.31
2023-05-14T21:03:11.183Z,102170.47
2023-05-14T21:05:41.458Z,102170.53
2023-05-14T21:08:09.524Z,102174.19
2023-05-14T21:10:37.522Z,102176.97
2023-05-14T21:13:05.547Z,102169.91
2023-05-14T21:15:33.768Z,102177.13
2023-05-14T21:18:02.971Z,102174.44
2023-05-14T21:20:32.485Z,102178.06
2023-05-14T21:23:00.504Z,102177.19
2023-05-14T21:25:28.478Z,102177.22
2023-05-14T21:27:56.560Z,102175.50
2023-05-14T21:30:24.524Z,102169.28
2023-05-14T21:32:52.619Z,102174.69
2023-05-14T21:35:20.700Z,102172.00
2023-05-14T21:37:50.104Z,102174.81
2023-05-14T21:40:18.222Z,102173.97
2023-05-14T21:42:46.229Z,102174.88
2023-05-14T21:45:14.327Z,102182.06
2023-05-14T21:47:42.572Z,102175.00
2023-05-14T21:50:11.034Z,102174.03
2023-05-14T21:52:38.980Z,102177.72
2023-05-14T21:55:09.263Z,102180.38
2023-05-14T21:57:37.510Z,102177.75
2023-05-14T22:00:08.335Z,102180.47
2023-05-14T22:02:36.405Z,102184.94
2023-05-14T22:05:05.240Z,102174.34
2023-05-14T22:07:33.747Z,102181.53
2023-05-14T22:10:01.824Z,102177.19
2023-05-14T22:12:31.295Z,102179.88
2023-05-14T22:14:59.385Z,102167.47
2023-05-14T22:17:28.128Z,102172.00
2023-05-14T22:19:56.295Z,102174.72
2023-05-14T22:22:24.429Z,102173.88
2023-05-14T22:24:52.568Z,102178.38
2023-05-14T22:27:20.702Z,102178.47
2023-05-14T22:29:50.068Z,102174.09
2023-05-14T22:32:18.156Z,102177.72
2023-05-14T22:34:46.130Z,102176.00
2023-05-14T22:37:14.093Z,102173.38
2023-05-14T22:39:42.115Z,102177.00
2023-05-14T22:42:10.117Z,102176.16
2023-05-14T22:44:38.198Z,102176.19
2023-05-14T22:47:07.828Z,102174.50
2023-05-14T22:49:35.876Z,102177.25
2023-05-14T22:52:03.924Z,102182.72
2023-05-14T22:54:32.022Z,102182.78
2023-05-14T22:57:00.125Z,102174.78
2023-05-14T22:59:28.133Z,102180.19
2023-05-14T23:01:56.268Z,102177.56
2023-05-14T23:04:26.239Z,102175.84
2023-05-14T23:06:54.357Z,102172.31
2023-05-14T23:09:22.329Z,102171.50
2023-05-14T23:11:50.342Z,102179.56
2023-05-14T23:14:18.766Z,102176.06
2023-05-14T23:16:46.833Z,102171.75
2023-05-14T23:19:15.044Z,102175.41
2023-05-14T23:21:44.563Z,102176.38
2023-05-14T23:24:15.939Z,102174.63
2023-05-14T23:26:44.110Z,102174.81
2023-05-14T23:29:12.275Z,102174.91
2023-05-14T23:31:41.116Z,102167.88
2023-05-14T23:34:09.245Z,102167.88
2023-05-14T23:36:37.722Z,102171.53
2023-05-14T23:39:07.154Z,102174.28
2023-05-14T23:41:35.256Z,102174.38
2023-05-14T23:44:03.479Z,102169.19
2023-05-14T23:46:31.765Z,102171.94
2023-05-14T23:49:00.026Z,102165.72
2023-05-14T23:51:28.379Z,102164.06
2023-05-14T23:53:58.671Z,102162.34
2023-05-14T23:56:29.168Z,102167.81
2023-05-14T23:58:57.587Z,102163.50
